Time;durP1;ratioP1;P1;durP2;ratioP2;P2;SDS_P1;SDS_P2;PMS_P1;PMS_P2;Temp;Humidity;BMP_temperature;BMP_pressure;BME280_temperature;BME280_humidity;BME280_pressure;Samples;Min_cycle;Max_cycle;Signal;HPM_P1;HPM_P2
2021/04/15 00:02:30;;;;;;;9.43;7.40;;;;;;;;;;6065759;29;20048;-71
2021/04/15 00:05:32;;;;;;;8.43;6.85;;;;;;;;;;6059346;29;20555;-72
2021/04/15 00:08:33;;;;;;;8.68;6.60;;;;;;;;;;6071899;29;20128;-71
2021/04/15 00:11:35;;;;;;;8.25;6.78;;;;;;;;;;6068736;29;20076;-69
2021/04/15 00:14:36;;;;;;;9.75;6.93;;;;;;;;;;6059552;29;20135;-70
2021/04/15 00:17:38;;;;;;;8.48;6.97;;;;;;;;;;6060095;29;20423;-70
2021/04/15 00:20:39;;;;;;;8.02;6.57;;;;;;;;;;6059598;29;20096;-70
2021/04/15 00:23:40;;;;;;;8.65;6.28;;;;;;;;;;6059705;29;20172;-70
2021/04/15 00:26:41;;;;;;;9.23;6.90;;;;;;;;;;6061596;29;20055;-71
2021/04/15 00:29:43;;;;;;;8.60;6.45;;;;;;;;;;6060355;29;20135;-70
2021/04/15 00:32:45;;;;;;;8.27;6.72;;;;;;;;;;6051811;29;20049;-72
2021/04/15 00:35:46;;;;;;;8.00;6.07;;;;;;;;;;6067440;29;20530;-69
2021/04/15 00:38:48;;;;;;;7.78;6.40;;;;;;;;;;6064791;29;20056;-70
2021/04/15 00:41:49;;;;;;;8.55;6.13;;;;;;;;;;6063118;29;20527;-70
2021/04/15 00:44:52;;;;;;;8.32;6.18;;;;;;;;;;6061424;29;20052;-70
2021/04/15 00:47:59;;;;;;;7.80;6.20;;;;;;;;;;6066101;29;20165;-70
2021/04/15 00:51:03;;;;;;;8.05;6.47;;;;;;;;;;6073162;29;20052;-69
2021/04/15 00:54:07;;;;;;;8.00;5.90;;;;;;;;;;6074964;29;20148;-71
2021/04/15 00:57:13;;;;;;;8.00;6.05;;;;;;;;;;6070734;29;20618;-69
2021/04/15 01:00:17;;;;;;;7.78;6.15;;;;;;;;;;6064531;29;20055;-72
2021/04/15 01:03:19;;;;;;;6.00;4.82;;;;;;;;;;6056879;29;20072;-71
2021/04/15 01:06:20;;;;;;;8.77;6.35;;;;;;;;;;6066997;29;20076;-70
2021/04/15 01:09:23;;;;;;;8.13;6.00;;;;;;;;;;6073637;29;20056;-70
2021/04/15 01:12:45;;;;;;;8.93;6.53;;;;;;;;;;6065701;29;20503;-70
2021/04/15 01:15:53;;;;;;;8.88;6.25;;;;;;;;;;6057692;29;20048;-70
2021/04/15 01:19:01;;;;;;;7.97;6.63;;;;;;;;;;6057438;29;20052;-70
2021/04/15 01:22:28;;;;;;;8.70;6.07;;;;;;;;;;6066159;29;20646;-70
2021/04/15 01:25:39;;;;;;;6.75;5.85;;;;;;;;;;6057513;29;20151;-73
2021/04/15 01:28:57;;;;;;;10.20;6.40;;;;;;;;;;6063727;29;20416;-73
2021/04/15 01:32:03;;;;;;;7.85;6.25;;;;;;;;;;6070905;29;20056;-70
2021/04/15 01:35:08;;;;;;;8.75;7.18;;;;;;;;;;6075212;29;20060;-68
2021/04/15 01:38:12;;;;;;;8.98;6.90;;;;;;;;;;6069014;29;20127;-70
2021/04/15 01:41:13;;;;;;;;;;;;;;;;;;6061093;29;20117;-71
2021/04/15 01:44:19;;;;;;;9.60;7.03;;;;;;;;;;6061635;29;20019;-70
2021/04/15 01:47:22;;;;;;;10.68;7.03;;;;;;;;;;6062687;29;20655;-70
2021/04/15 01:50:26;;;;;;;8.93;6.03;;;;;;;;;;6066403;29;20047;-70
2021/04/15 01:53:30;;;;;;;8.50;6.57;;;;;;;;;;6060352;29;20429;-70
2021/04/15 01:56:34;;;;;;;6.87;6.17;;;;;;;;;;6061101;29;20053;-69
2021/04/15 01:59:41;;;;;;;8.82;6.88;;;;;;;;;;6071926;29;20544;-72
2021/04/15 02:02:45;;;;;;;8.38;6.70;;;;;;;;;;6072306;29;20092;-71
2021/04/15 02:05:49;;;;;;;7.90;5.97;;;;;;;;;;6076966;29;20079;-70
2021/04/15 02:08:53;;;;;;;8.48;6.43;;;;;;;;;;6072723;29;20600;-71
2021/04/15 02:11:58;;;;;;;7.60;5.78;;;;;;;;;;6062627;29;20522;-71
2021/04/15 02:15:07;;;;;;;8.10;6.18;;;;;;;;;;6068240;29;20128;-69
2021/04/15 02:18:08;;;;;;;8.07;5.93;;;;;;;;;;6071769;29;20087;-70
2021/04/15 02:21:12;;;;;;;8.13;6.07;;;;;;;;;;6062528;29;20139;-72
2021/04/15 02:24:19;;;;;;;7.65;5.55;;;;;;;;;;6070740;29;20504;-70
2021/04/15 02:27:22;;;;;;;7.75;5.75;;;;;;;;;;6070694;29;20068;-70
2021/04/15 02:30:27;;;;;;;8.68;5.88;;;;;;;;;;6067046;29;20168;-71
2021/04/15 02:33:32;;;;;;;6.20;5.40;;;;;;;;;;6062351;29;20053;-71
2021/04/15 02:36:39;;;;;;;6.45;4.97;;;;;;;;;;6070991;29;20665;-71
2021/04/15 02:39:43;;;;;;;8.05;5.00;;;;;;;;;;6066016;29;20144;-70
2021/04/15 02:42:45;;;;;;;7.32;5.43;;;;;;;;;;6070661;29;20720;-71
2021/04/15 02:45:51;;;;;;;6.68;5.00;;;;;;;;;;6061849;29;20128;-71
2021/04/15 02:48:56;;;;;;;6.60;5.05;;;;;;;;;;6069074;29;20163;-70
2021/04/15 02:52:01;;;;;;;6.85;5.25;;;;;;;;;;6065131;29;20072;-71
2021/04/15 02:55:05;;;;;;;6.10;5.28;;;;;;;;;;6068384;29;20072;-71
2021/04/15 02:58:10;;;;;;;5.72;4.60;;;;;;;;;;6065629;29;20136;-72
2021/04/15 03:01:16;;;;;;;6.82;5.38;;;;;;;;;;6071161;29;20156;-69
2021/04/15 03:04:20;;;;;;;7.28;4.85;;;;;;;;;;6069019;29;20507;-71
2021/04/15 03:07:24;;;;;;;7.10;5.13;;;;;;;;;;6070915;29;20041;-68
2021/04/15 03:10:28;;;;;;;6.33;4.73;;;;;;;;;;6072692;29;20557;-70
2021/04/15 03:13:31;;;;;;;7.72;4.85;;;;;;;;;;6068831;29;20116;-70
2021/04/15 03:16:40;;;;;;;9.02;5.30;;;;;;;;;;6071220;29;20109;-71
2021/04/15 03:19:45;;;;;;;5.80;4.97;;;;;;;;;;6064700;29;20512;-71
2021/04/15 03:22:53;;;;;;;7.63;4.95;;;;;;;;;;6059178;29;20080;-69
2021/04/15 03:25:57;;;;;;;7.55;4.88;;;;;;;;;;6064495;29;20056;-71
2021/04/15 03:29:10;;;;;;;8.65;5.10;;;;;;;;;;6058043;29;20170;-71
2021/04/15 03:32:17;;;;;;;7.13;4.43;;;;;;;;;;6059106;29;20144;-71
2021/04/15 03:35:26;;;;;;;7.43;4.75;;;;;;;;;;6055224;29;20061;-72
2021/04/15 03:38:30;;;;;;;7.72;4.80;;;;;;;;;;6069634;29;20135;-70
2021/04/15 03:41:34;;;;;;;6.78;4.90;;;;;;;;;;6062500;29;20095;-70
2021/04/15 03:44:39;;;;;;;6.07;4.55;;;;;;;;;;6063351;29;20161;-70
2021/04/15 03:47:44;;;;;;;7.55;5.30;;;;;;;;;;6063292;29;20394;-70
2021/04/15 03:50:50;;;;;;;7.20;4.70;;;;;;;;;;6054204;29;20443;-70
2021/04/15 03:53:53;;;;;;;6.78;4.90;;;;;;;;;;6054272;29;20060;-69
2021/04/15 03:56:57;;;;;;;7.95;4.88;;;;;;;;;;6062180;29;20452;-69
2021/04/15 04:00:04;;;;;;;6.32;5.03;;;;;;;;;;6060007;29;20169;-71
2021/04/15 04:03:09;;;;;;;8.98;5.28;;;;;;;;;;6060611;29;20061;-69
2021/04/15 04:06:15;;;;;;;6.85;4.72;;;;;;;;;;6054224;29;20147;-72
2021/04/15 04:09:20;;;;;;;8.07;4.88;;;;;;;;;;6061329;29;20091;-70
2021/04/15 04:12:26;;;;;;;7.18;4.75;;;;;;;;;;6068524;29;20562;-71
2021/04/15 04:15:30;;;;;;;7.10;5.18;;;;;;;;;;6064228;29;20108;-70
2021/04/15 04:18:40;;;;;;;8.98;5.30;;;;;;;;;;6056286;29;20139;-70
2021/04/15 04:21:46;;;;;;;7.95;5.03;;;;;;;;;;6070398;29;20156;-70
2021/04/15 04:24:53;;;;;;;7.32;5.00;;;;;;;;;;6066239;29;20135;-69
2021/04/15 04:27:59;;;;;;;7.13;4.95;;;;;;;;;;6067688;29;20440;-70
2021/04/15 04:31:02;;;;;;;6.43;4.80;;;;;;;;;;6068750;29;20115;-70
2021/04/15 04:34:05;;;;;;;11.05;5.15;;;;;;;;;;6063214;29;20155;-69
2021/04/15 04:37:09;;;;;;;8.20;4.80;;;;;;;;;;6068055;29;20131;-72
2021/04/15 04:40:15;;;;;;;6.82;4.80;;;;;;;;;;6063572;29;20053;-70
2021/04/15 04:43:19;;;;;;;6.22;4.57;;;;;;;;;;6064789;29;20120;-70
2021/04/15 04:46:33;;;;;;;7.05;5.15;;;;;;;;;;6065905;29;20513;-69
2021/04/15 04:49:39;;;;;;;7.63;5.32;;;;;;;;;;6060256;29;20115;-71
2021/04/15 04:52:40;;;;;;;6.57;5.10;;;;;;;;;;6058640;29;20079;-70
2021/04/15 04:55:43;;;;;;;7.50;4.95;;;;;;;;;;6063188;29;20136;-70
2021/04/15 04:58:48;;;;;;;6.78;5.05;;;;;;;;;;6066480;29;20160;-70
2021/04/15 05:01:50;;;;;;;8.13;4.43;;;;;;;;;;6060189;29;20116;-70
2021/04/15 05:04:58;;;;;;;8.40;4.72;;;;;;;;;;6058748;29;20044;-70
2021/04/15 05:08:09;;;;;;;6.00;4.40;;;;;;;;;;6060822;29;20498;-69
2021/04/15 05:11:10;;;;;;;6.45;4.65;;;;;;;;;;6064158;29;20056;-69
2021/04/15 05:14:12;;;;;;;7.38;4.57;;;;;;;;;;6066051;29;20052;-69
2021/04/15 05:17:34;;;;;;;7.70;4.47;;;;;;;;;;6076179;29;20139;-70
2021/04/15 05:20:36;;;;;;;7.28;5.03;;;;;;;;;;6072189;29;20769;-70
2021/04/15 05:23:41;;;;;;;6.47;4.80;;;;;;;;;;6068161;29;20065;-70
2021/04/15 05:26:43;;;;;;;6.53;5.20;;;;;;;;;;6062319;29;20951;-71
2021/04/15 05:29:47;;;;;;;5.88;5.20;;;;;;;;;;6058551;29;20071;-71
2021/04/15 05:32:48;;;;;;;6.13;4.38;;;;;;;;;;6060659;29;20124;-69
2021/04/15 05:35:54;;;;;;;9.13;4.75;;;;;;;;;;6064691;29;20053;-70
2021/04/15 05:38:57;;;;;;;8.88;5.25;;;;;;;;;;6060128;29;20476;-69
2021/04/15 05:42:02;;;;;;;8.05;4.55;;;;;;;;;;6060829;29;20064;-70
2021/04/15 05:45:08;;;;;;;7.55;4.50;;;;;;;;;;6059966;29;20061;-69
2021/04/15 05:48:12;;;;;;;11.25;4.03;;;;;;;;;;6056036;29;20437;-70
2021/04/15 05:51:15;;;;;;;;;;;;;;;;;;6061767;29;20083;-70
2021/04/15 05:54:16;;;;;;;7.82;4.75;;;;;;;;;;6063355;29;19971;-71
2021/04/15 05:57:20;;;;;;;7.18;4.38;;;;;;;;;;6073174;29;20080;-70
2021/04/15 06:00:25;;;;;;;6.18;4.30;;;;;;;;;;6066431;29;20076;-70
2021/04/15 06:03:34;;;;;;;7.25;4.75;;;;;;;;;;6063263;29;20492;-69
2021/04/15 06:06:38;;;;;;;327.20;25.88;;;;;;;;;;6061428;29;20649;-75
2021/04/15 06:09:39;;;;;;;57.35;8.32;;;;;;;;;;6071828;29;20148;-72
2021/04/15 06:12:47;;;;;;;13.73;4.25;;;;;;;;;;6072997;29;20143;-71
2021/04/15 06:15:56;;;;;;;13.10;4.15;;;;;;;;;;6068316;29;20702;-71
2021/04/15 06:19:03;;;;;;;6.05;3.80;;;;;;;;;;6067111;29;20131;-70
2021/04/15 06:22:11;;;;;;;6.22;4.00;;;;;;;;;;6063633;29;20064;-70
2021/04/15 06:25:16;;;;;;;9.52;4.07;;;;;;;;;;6063137;29;20056;-70
2021/04/15 06:28:26;;;;;;;7.68;4.07;;;;;;;;;;6060517;29;20083;-70
2021/04/15 06:31:30;;;;;;;6.55;3.97;;;;;;;;;;6064904;29;20067;-70
2021/04/15 06:34:31;;;;;;;8.45;3.97;;;;;;;;;;6064806;29;20072;-71
2021/04/15 06:37:38;;;;;;;6.57;3.80;;;;;;;;;;6063179;29;20563;-71
2021/04/15 06:40:59;;;;;;;6.13;3.95;;;;;;;;;;6066633;29;20143;-71
2021/04/15 06:44:25;;;;;;;6.93;4.07;;;;;;;;;;6074765;29;20049;-70
2021/04/15 06:47:45;;;;;;;5.35;3.92;;;;;;;;;;6067222;29;20099;-71
2021/04/15 06:51:05;;;;;;;10.48;3.60;;;;;;;;;;6064286;29;20135;-71
2021/04/15 06:54:19;;;;;;;4.22;3.40;;;;;;;;;;6067791;29;20503;-72
2021/04/15 06:57:29;;;;;;;7.32;4.30;;;;;;;;;;6072445;29;20052;-71
2021/04/15 07:00:46;;;;;;;9.23;3.78;;;;;;;;;;6073550;29;20500;-71
2021/04/15 07:04:00;;;;;;;7.45;3.88;;;;;;;;;;6064609;29;20493;-70
2021/04/15 07:07:07;;;;;;;5.45;3.30;;;;;;;;;;6071219;29;20543;-71
2021/04/15 07:10:19;;;;;;;4.63;3.70;;;;;;;;;;6071787;29;20060;-73
2021/04/15 07:13:53;;;;;;;4.03;3.30;;;;;;;;;;6067574;29;20135;-75
2021/04/15 07:17:18;;;;;;;4.93;3.38;;;;;;;;;;6056099;29;20132;-75
2021/04/15 07:20:34;;;;;;;3.85;3.17;;;;;;;;;;6061901;29;20132;-75
2021/04/15 07:23:50;;;;;;;5.05;3.15;;;;;;;;;;6068652;29;20127;-75
2021/04/15 07:27:19;;;;;;;9.27;3.92;;;;;;;;;;6068266;29;20152;-74
2021/04/15 07:30:30;;;;;;;5.30;3.67;;;;;;;;;;6069705;29;20143;-74
2021/04/15 07:33:51;;;;;;;7.38;3.72;;;;;;;;;;6075850;29;20068;-74
2021/04/15 07:37:13;;;;;;;9.10;4.32;;;;;;;;;;6071095;29;20098;-74
2021/04/15 07:40:35;;;;;;;8.70;4.13;;;;;;;;;;6064672;29;20053;-75
2021/04/15 07:44:17;;;;;;;7.47;4.03;;;;;;;;;;6069310;29;20140;-75
2021/04/15 07:47:36;;;;;;;6.10;4.25;;;;;;;;;;6051915;29;20127;-75
2021/04/15 07:51:01;;;;;;;5.05;3.47;;;;;;;;;;6066861;29;20080;-75
2021/04/15 07:54:25;;;;;;;5.60;3.95;;;;;;;;;;6067025;29;20139;-75
2021/04/15 07:58:05;;;;;;;5.82;4.30;;;;;;;;;;6079549;29;20101;-76
2021/04/15 08:01:24;;;;;;;5.22;3.42;;;;;;;;;;6075242;29;20091;-76
2021/04/15 08:04:55;;;;;;;6.40;4.25;;;;;;;;;;6070441;29;20135;-75
2021/04/15 08:08:29;;;;;;;3.72;2.90;;;;;;;;;;6075216;29;20177;-74
2021/04/15 08:11:48;;;;;;;5.55;3.10;;;;;;;;;;6051158;29;20166;-75
2021/04/15 08:15:14;;;;;;;4.10;3.30;;;;;;;;;;6075056;29;20055;-75
2021/04/15 08:18:23;;;;;;;6.40;4.07;;;;;;;;;;6071432;29;20040;-75
2021/04/15 08:21:31;;;;;;;9.13;5.00;;;;;;;;;;6067588;29;20052;-72
2021/04/15 08:24:34;;;;;;;5.13;4.03;;;;;;;;;;6060732;29;20072;-71
2021/04/15 08:27:46;;;;;;;3.78;3.00;;;;;;;;;;6064544;29;20053;-71
2021/04/15 08:30:54;;;;;;;4.03;2.10;;;;;;;;;;6061534;29;20091;-71
2021/04/15 08:34:00;;;;;;;2.80;1.90;;;;;;;;;;6064857;29;20072;-71
2021/04/15 08:37:11;;;;;;;2.88;1.50;;;;;;;;;;6064344;29;20207;-71
2021/04/15 08:40:22;;;;;;;2.08;1.30;;;;;;;;;;6062338;29;20045;-72
2021/04/15 08:43:39;;;;;;;3.85;1.73;;;;;;;;;;6064247;29;20056;-71
2021/04/15 08:46:44;;;;;;;2.53;1.73;;;;;;;;;;6069106;29;20128;-71
2021/04/15 08:49:50;;;;;;;7.07;2.83;;;;;;;;;;6078283;29;20068;-71
2021/04/15 08:53:00;;;;;;;4.45;1.60;;;;;;;;;;6076275;29;20064;-71
2021/04/15 08:56:04;;;;;;;3.60;1.83;;;;;;;;;;6064715;29;20075;-72
2021/04/15 08:59:15;;;;;;;3.45;1.90;;;;;;;;;;6061513;29;20049;-71
2021/04/15 09:02:22;;;;;;;4.20;2.40;;;;;;;;;;6056233;29;20739;-70
2021/04/15 09:05:29;;;;;;;5.72;2.97;;;;;;;;;;6065279;29;20131;-71
2021/04/15 09:08:36;;;;;;;6.13;4.00;;;;;;;;;;6062931;29;20076;-71
2021/04/15 09:11:40;;;;;;;7.18;4.32;;;;;;;;;;6063056;29;20108;-71
2021/04/15 09:14:54;;;;;;;5.97;5.18;;;;;;;;;;6062985;29;20189;-71
2021/04/15 09:18:00;;;;;;;8.40;5.80;;;;;;;;;;6057219;29;20079;-70
2021/04/15 09:21:18;;;;;;;6.38;4.93;;;;;;;;;;6064175;29;20139;-71
2021/04/15 09:24:31;;;;;;;9.38;4.70;;;;;;;;;;6067072;29;20057;-72
2021/04/15 09:27:47;;;;;;;5.53;4.55;;;;;;;;;;6061380;29;20416;-71
2021/04/15 09:31:00;;;;;;;7.38;4.40;;;;;;;;;;6054870;29;20060;-74
2021/04/15 09:34:19;;;;;;;7.03;4.00;;;;;;;;;;6063951;29;20053;-72
2021/04/15 09:37:47;;;;;;;4.55;3.55;;;;;;;;;;6070800;29;20535;-72
2021/04/15 09:41:01;;;;;;;4.72;3.60;;;;;;;;;;6071681;29;20630;-72
2021/04/15 09:44:10;;;;;;;3.85;3.38;;;;;;;;;;6063096;29;20053;-72
2021/04/15 09:47:25;;;;;;;5.07;3.10;;;;;;;;;;6065963;29;20152;-74
2021/04/15 09:50:27;;;;;;;;;;;;;;;;;;6066527;29;20123;-72
2021/04/15 09:53:40;;;;;;;7.72;2.60;;;;;;;;;;6073994;29;20018;-72
2021/04/15 09:57:10;;;;;;;4.70;2.30;;;;;;;;;;6059936;29;20049;-71
2021/04/15 10:00:33;;;;;;;7.80;1.98;;;;;;;;;;6062109;29;20848;-71
2021/04/15 10:03:43;;;;;;;4.22;2.05;;;;;;;;;;6064483;29;20259;-72
2021/04/15 10:06:46;;;;;;;4.15;2.38;;;;;;;;;;6066645;29;20063;-71
2021/04/15 10:09:58;;;;;;;4.32;2.58;;;;;;;;;;6066633;29;20139;-72
2021/04/15 10:13:07;;;;;;;4.00;2.50;;;;;;;;;;6067501;29;20072;-71
2021/04/15 10:16:16;;;;;;;4.50;3.70;;;;;;;;;;6070012;29;20060;-72
2021/04/15 10:19:42;;;;;;;6.30;3.83;;;;;;;;;;6071521;29;20076;-72
2021/04/15 10:22:52;;;;;;;4.70;3.42;;;;;;;;;;6076776;29;20060;-72
2021/04/15 10:25:56;;;;;;;5.10;3.67;;;;;;;;;;6080980;29;20092;-72
2021/04/15 10:29:16;;;;;;;3.45;3.00;;;;;;;;;;6078730;29;20075;-72
2021/04/15 10:32:33;;;;;;;3.15;2.35;;;;;;;;;;6074755;29;20060;-74
2021/04/15 10:35:59;;;;;;;4.35;2.97;;;;;;;;;;6072230;29;20087;-72
2021/04/15 10:39:22;;;;;;;6.10;3.13;;;;;;;;;;6079279;29;20080;-73
2021/04/15 10:43:04;;;;;;;3.15;2.65;;;;;;;;;;6066370;29;20151;-72
2021/04/15 10:46:32;;;;;;;3.97;2.83;;;;;;;;;;6071926;29;20048;-72
2021/04/15 10:49:37;;;;;;;4.43;3.08;;;;;;;;;;6080787;29;20543;-72
2021/04/15 10:52:56;;;;;;;2.85;2.33;;;;;;;;;;6072343;29;20067;-73
2021/04/15 10:56:05;;;;;;;4.30;2.35;;;;;;;;;;6075644;29;20067;-73
2021/04/15 10:59:15;;;;;;;5.10;2.35;;;;;;;;;;6077808;29;20049;-72
2021/04/15 11:02:33;;;;;;;3.75;2.72;;;;;;;;;;6075374;29;20072;-73
2021/04/15 11:05:40;;;;;;;4.38;2.38;;;;;;;;;;6079892;29;20059;-72
2021/04/15 11:08:41;;;;;;;2.80;2.50;;;;;;;;;;6075777;29;20048;-72
2021/04/15 11:11:52;;;;;;;3.95;2.50;;;;;;;;;;6074518;29;20048;-72
2021/04/15 11:15:22;;;;;;;2.90;2.35;;;;;;;;;;6078208;29;20104;-72
2021/04/15 11:18:29;;;;;;;3.17;2.35;;;;;;;;;;6073931;29;20480;-72
2021/04/15 11:21:34;;;;;;;2.95;2.20;;;;;;;;;;6080454;29;20083;-72
2021/04/15 11:24:36;;;;;;;4.20;2.63;;;;;;;;;;6075371;29;20536;-72
2021/04/15 11:27:38;;;;;;;3.22;2.40;;;;;;;;;;6080528;29;20064;-72
2021/04/15 11:30:45;;;;;;;7.18;2.92;;;;;;;;;;6081390;29;20057;-72
2021/04/15 11:33:49;;;;;;;4.38;2.97;;;;;;;;;;6068288;29;20078;-72
2021/04/15 11:37:03;;;;;;;2.78;2.28;;;;;;;;;;6081344;29;20084;-73
2021/04/15 11:40:17;;;;;;;3.88;2.80;;;;;;;;;;6087047;29;20116;-72
2021/04/15 11:43:25;;;;;;;4.50;2.50;;;;;;;;;;6085026;29;20060;-77
2021/04/15 11:46:33;;;;;;;4.55;2.47;;;;;;;;;;6088908;29;20068;-73
2021/04/15 11:49:37;;;;;;;3.03;2.20;;;;;;;;;;6085296;29;20068;-73
2021/04/15 11:52:41;;;;;;;3.05;2.40;;;;;;;;;;6078672;29;20088;-74
2021/04/15 11:55:42;;;;;;;2.10;1.88;;;;;;;;;;6072595;29;20472;-72
2021/04/15 11:58:43;;;;;;;4.82;2.45;;;;;;;;;;6071989;29;20082;-72
2021/04/15 12:01:45;;;;;;;3.53;3.00;;;;;;;;;;6058439;29;20140;-73
2021/04/15 12:04:47;;;;;;;3.58;2.83;;;;;;;;;;6056024;29;20073;-73
2021/04/15 12:07:52;;;;;;;3.58;2.90;;;;;;;;;;6084694;29;20239;-73
2021/04/15 12:10:57;;;;;;;4.25;2.80;;;;;;;;;;6066254;29;20485;-73
2021/04/15 12:14:01;;;;;;;8.40;3.40;;;;;;;;;;6066851;29;20063;-74
2021/04/15 12:17:04;;;;;;;;;;;;;;;;;;6069892;29;20148;-74
2021/04/15 12:20:09;;;;;;;3.92;2.28;;;;;;;;;;6064592;29;20469;-73
2021/04/15 12:23:16;;;;;;;4.90;2.20;;;;;;;;;;6064767;29;20062;-73
2021/04/15 12:26:22;;;;;;;3.08;1.73;;;;;;;;;;6069395;29;20131;-72
2021/04/15 12:29:26;;;;;;;3.72;2.10;;;;;;;;;;6058994;29;20509;-75
2021/04/15 12:32:37;;;;;;;2.92;1.92;;;;;;;;;;6067995;29;20055;-73
2021/04/15 12:35:43;;;;;;;2.00;1.73;;;;;;;;;;6057203;29;20473;-73
2021/04/15 12:38:49;;;;;;;2.47;1.60;;;;;;;;;;6062371;29;20076;-74
2021/04/15 12:41:52;;;;;;;3.30;1.60;;;;;;;;;;6062474;29;20268;-73
2021/04/15 12:44:55;;;;;;;2.90;1.60;;;;;;;;;;6074099;29;20400;-73
2021/04/15 12:47:57;;;;;;;2.08;1.10;;;;;;;;;;6072030;29;20072;-75
2021/04/15 12:51:00;;;;;;;1.60;1.20;;;;;;;;;;6073063;29;20056;-73
2021/04/15 12:54:04;;;;;;;3.85;1.42;;;;;;;;;;6067540;29;20123;-73
2021/04/15 12:57:07;;;;;;;1.52;1.33;;;;;;;;;;6058671;29;20053;-74
2021/04/15 13:00:12;;;;;;;2.20;1.40;;;;;;;;;;6065776;29;20087;-75
2021/04/15 13:03:21;;;;;;;2.15;1.20;;;;;;;;;;6060265;29;20132;-73
2021/04/15 13:06:23;;;;;;;1.77;1.13;;;;;;;;;;6058589;29;20090;-73
2021/04/15 13:09:25;;;;;;;1.90;1.30;;;;;;;;;;6058915;29;20957;-73
2021/04/15 13:12:32;;;;;;;2.35;1.13;;;;;;;;;;6054324;29;20053;-72
2021/04/15 13:15:40;;;;;;;2.83;1.23;;;;;;;;;;6060258;29;20495;-73
2021/04/15 13:18:43;;;;;;;2.00;1.30;;;;;;;;;;6058866;29;20201;-74
2021/04/15 13:21:58;;;;;;;1.98;1.42;;;;;;;;;;6057334;29;20535;-74
2021/04/15 13:25:10;;;;;;;2.38;1.40;;;;;;;;;;6058692;29;20068;-73
2021/04/15 13:28:12;;;;;;;4.22;1.02;;;;;;;;;;6060903;29;20132;-73
2021/04/15 13:31:34;;;;;;;3.20;1.40;;;;;;;;;;6070113;29;20620;-74
2021/04/15 13:35:03;;;;;;;4.63;1.40;;;;;;;;;;6072284;29;20048;-73
2021/04/15 13:38:42;;;;;;;1.92;1.50;;;;;;;;;;6069472;29;20042;-73
2021/04/15 13:42:00;;;;;;;1.55;1.27;;;;;;;;;;6055040;29;20040;-73
2021/04/15 13:45:11;;;;;;;1.90;1.40;;;;;;;;;;6065762;29;20057;-74
2021/04/15 13:48:42;;;;;;;1.80;1.40;;;;;;;;;;6066273;29;20538;-73
2021/04/15 13:52:10;;;;;;;2.28;1.50;;;;;;;;;;6053023;29;20052;-73
2021/04/15 13:55:33;;;;;;;3.35;1.20;;;;;;;;;;6066391;29;20048;-74
2021/04/15 13:58:36;;;;;;;1.52;1.20;;;;;;;;;;6062151;29;20144;-73
2021/04/15 14:01:42;;;;;;;2.35;1.13;;;;;;;;;;6064507;29;20069;-74
2021/04/15 14:04:46;;;;;;;4.30;1.25;;;;;;;;;;6060494;29;20074;-73
2021/04/15 14:07:50;;;;;;;1.52;1.27;;;;;;;;;;6062522;29;20534;-74
2021/04/15 14:10:52;;;;;;;2.33;1.20;;;;;;;;;;6063160;29;20113;-75
2021/04/15 14:13:56;;;;;;;2.15;1.67;;;;;;;;;;6062709;29;20124;-73
2021/04/15 14:16:59;;;;;;;4.65;1.67;;;;;;;;;;6063574;29;20049;-73
2021/04/15 14:20:24;;;;;;;3.20;1.60;;;;;;;;;;6064516;29;20089;-73
2021/04/15 14:23:28;;;;;;;1.48;1.23;;;;;;;;;;6054441;29;20069;-74
2021/04/15 14:26:32;;;;;;;2.95;1.63;;;;;;;;;;6056025;29;20053;-74
2021/04/15 14:29:35;;;;;;;2.75;1.50;;;;;;;;;;6049782;29;20144;-74
2021/04/15 14:32:38;;;;;;;1.75;1.40;;;;;;;;;;6058907;29;20060;-74
2021/04/15 14:35:40;;;;;;;1.60;1.50;;;;;;;;;;6058639;29;20523;-74
2021/04/15 14:38:43;;;;;;;4.00;2.05;;;;;;;;;;6065962;29;20100;-74
2021/04/15 14:41:52;;;;;;;2.40;2.13;;;;;;;;;;6068963;29;20404;-74
2021/04/15 14:44:57;;;;;;;2.78;1.70;;;;;;;;;;6061282;29;20057;-74
2021/04/15 14:48:00;;;;;;;3.30;2.30;;;;;;;;;;6076402;29;20132;-73
2021/04/15 14:51:04;;;;;;;2.50;1.90;;;;;;;;;;6075329;29;20436;-73
2021/04/15 14:54:19;;;;;;;;;;;;;;;;;;6076750;29;20076;-73
2021/04/15 14:57:24;;;;;;;4.20;2.33;;;;;;;;;;6063271;29;19924;-73
2021/04/15 15:00:27;;;;;;;3.97;2.30;;;;;;;;;;6070214;29;20040;-74
2021/04/15 15:03:31;;;;;;;2.83;1.70;;;;;;;;;;6071164;29;20056;-75
2021/04/15 15:06:35;;;;;;;2.33;1.70;;;;;;;;;;6062675;29;20147;-75
2021/04/15 15:09:41;;;;;;;1.80;1.33;;;;;;;;;;6063509;29;20135;-74
2021/04/15 15:12:43;;;;;;;2.92;1.60;;;;;;;;;;6073539;29;20052;-75
2021/04/15 15:15:46;;;;;;;5.18;1.70;;;;;;;;;;6059019;29;20232;-73
2021/04/15 15:18:48;;;;;;;3.97;2.55;;;;;;;;;;6064547;29;20119;-74
2021/04/15 15:21:51;;;;;;;3.45;1.80;;;;;;;;;;6060681;29;20131;-75
2021/04/15 15:24:53;;;;;;;2.35;1.77;;;;;;;;;;6069291;29;20048;-73
2021/04/15 15:27:56;;;;;;;2.63;1.60;;;;;;;;;;6063615;29;20484;-74
2021/04/15 15:31:05;;;;;;;;;;;;;;;;;;6073469;29;20387;-75
2021/04/15 15:34:18;;;;;;;2.40;1.95;;;;;;;;;;6068222;29;20575;-75
2021/04/15 15:37:22;;;;;;;2.28;1.83;;;;;;;;;;6061197;29;20064;-75
2021/04/15 15:40:38;;;;;;;2.83;2.10;;;;;;;;;;6058010;29;20056;-74
2021/04/15 15:43:41;;;;;;;2.17;1.90;;;;;;;;;;6058635;29;20080;-74
2021/04/15 15:46:46;;;;;;;4.03;2.08;;;;;;;;;;6068966;29;20087;-73
2021/04/15 15:50:06;;;;;;;3.80;2.30;;;;;;;;;;6052322;29;20507;-74
2021/04/15 15:53:26;;;;;;;2.80;2.15;;;;;;;;;;6071339;29;20060;-73
2021/04/15 15:56:37;;;;;;;2.85;2.10;;;;;;;;;;6075214;29;20045;-71
2021/04/15 16:00:22;;;;;;;3.25;2.00;;;;;;;;;;6061647;29;20053;-75
2021/04/15 16:03:24;;;;;;;;;;;;;;;;;;6048903;29;20472;-73
2021/04/15 16:06:25;;;;;;;3.58;2.40;;;;;;;;;;6060700;29;19932;-73
2021/04/15 16:09:27;;;;;;;3.15;2.40;;;;;;;;;;6060435;29;20076;-73
2021/04/15 16:12:34;;;;;;;3.08;2.33;;;;;;;;;;6055497;29;20060;-75
2021/04/15 16:15:41;;;;;;;5.63;3.35;;;;;;;;;;6053644;29;20116;-73
2021/04/15 16:18:42;;;;;;;4.53;3.25;;;;;;;;;;6057769;29;20080;-73
2021/04/15 16:21:44;;;;;;;5.90;3.28;;;;;;;;;;6058746;29;20123;-74
2021/04/15 16:24:45;;;;;;;3.35;2.88;;;;;;;;;;6057136;29;20037;-74
2021/04/15 16:27:47;;;;;;;3.70;3.00;;;;;;;;;;6057195;29;20716;-73
2021/04/15 16:30:48;;;;;;;5.15;2.95;;;;;;;;;;6058544;29;20143;-73
2021/04/15 16:33:49;;;;;;;3.60;2.65;;;;;;;;;;6065656;29;20159;-73
2021/04/15 16:36:52;;;;;;;4.60;2.60;;;;;;;;;;6060869;29;20148;-73
2021/04/15 16:39:53;;;;;;;4.15;2.55;;;;;;;;;;6067527;29;20147;-74
2021/04/15 16:42:55;;;;;;;4.40;3.22;;;;;;;;;;6067498;29;20076;-73
2021/04/15 16:45:57;;;;;;;3.40;2.95;;;;;;;;;;6064915;29;20071;-72
2021/04/15 16:48:58;;;;;;;3.70;3.05;;;;;;;;;;6064278;29;20065;-73
2021/04/15 16:52:00;;;;;;;4.53;3.15;;;;;;;;;;6065858;29;20127;-73
2021/04/15 16:55:01;;;;;;;5.75;4.05;;;;;;;;;;6065965;29;20049;-73
2021/04/15 16:58:03;;;;;;;4.25;3.17;;;;;;;;;;6066656;29;20092;-73
2021/04/15 17:01:05;;;;;;;3.65;3.30;;;;;;;;;;6066788;29;20065;-72
2021/04/15 17:04:06;;;;;;;4.95;3.78;;;;;;;;;;6073075;29;20064;-72
2021/04/15 17:07:07;;;;;;;5.78;3.60;;;;;;;;;;6068230;29;20092;-73
2021/04/15 17:10:11;;;;;;;5.03;3.88;;;;;;;;;;6074963;29;20495;-74
2021/04/15 17:13:15;;;;;;;6.88;3.60;;;;;;;;;;6077292;29;20396;-74
2021/04/15 17:16:16;;;;;;;7.07;3.97;;;;;;;;;;6079525;29;20072;-73
2021/04/15 17:19:17;;;;;;;6.10;4.10;;;;;;;;;;6082156;29;20051;-72
2021/04/15 17:22:19;;;;;;;7.30;4.28;;;;;;;;;;6076206;29;20600;-72
2021/04/15 17:25:21;;;;;;;5.90;4.72;;;;;;;;;;6077214;29;20061;-72
2021/04/15 17:28:24;;;;;;;7.60;4.38;;;;;;;;;;6081769;29;20076;-72
2021/04/15 17:31:28;;;;;;;6.63;4.78;;;;;;;;;;6082855;29;20048;-74
2021/04/15 17:34:29;;;;;;;6.83;4.93;;;;;;;;;;6085152;29;20098;-72
2021/04/15 17:37:30;;;;;;;7.10;4.32;;;;;;;;;;6075049;29;20111;-73
2021/04/15 17:40:33;;;;;;;6.03;4.68;;;;;;;;;;6078668;29;20076;-72
2021/04/15 17:43:39;;;;;;;8.52;5.63;;;;;;;;;;6068961;29;20072;-74
2021/04/15 17:46:40;;;;;;;7.05;4.78;;;;;;;;;;6077968;29;20088;-73
2021/04/15 17:49:41;;;;;;;6.90;4.85;;;;;;;;;;6084813;29;20082;-72
2021/04/15 17:52:43;;;;;;;7.20;5.35;;;;;;;;;;6078704;29;20053;-72
2021/04/15 17:55:44;;;;;;;8.00;4.90;;;;;;;;;;6071908;29;20045;-73
2021/04/15 17:58:46;;;;;;;5.65;4.85;;;;;;;;;;6078533;29;20068;-73
2021/04/15 18:01:48;;;;;;;5.65;4.70;;;;;;;;;;6083362;29;20052;-72
2021/04/15 18:04:49;;;;;;;7.45;4.82;;;;;;;;;;6084300;29;20067;-73
2021/04/15 18:07:50;;;;;;;7.38;4.28;;;;;;;;;;6086181;29;20108;-72
2021/04/15 18:10:54;;;;;;;5.00;3.90;;;;;;;;;;6081598;29;20049;-72
2021/04/15 18:13:56;;;;;;;7.47;4.78;;;;;;;;;;6075102;29;20041;-72
2021/04/15 18:16:57;;;;;;;6.68;4.53;;;;;;;;;;6080889;29;20063;-72
2021/04/15 18:19:59;;;;;;;6.93;4.00;;;;;;;;;;6082443;29;20057;-72
2021/04/15 18:23:00;;;;;;;4.50;3.90;;;;;;;;;;6083042;29;20057;-72
2021/04/15 18:26:03;;;;;;;5.82;4.28;;;;;;;;;;6087543;29;20049;-73
2021/04/15 18:29:05;;;;;;;4.72;3.60;;;;;;;;;;6082799;29;20081;-72
2021/04/15 18:32:10;;;;;;;5.03;3.30;;;;;;;;;;6092484;29;20495;-72
2021/04/15 18:35:12;;;;;;;5.55;3.67;;;;;;;;;;6083281;29;20065;-72
2021/04/15 18:38:14;;;;;;;4.90;3.65;;;;;;;;;;6090248;29;20096;-72
2021/04/15 18:41:18;;;;;;;3.65;3.35;;;;;;;;;;6095488;29;20417;-72
2021/04/15 18:44:20;;;;;;;6.90;3.83;;;;;;;;;;6091130;29;20349;-73
2021/04/15 18:47:22;;;;;;;4.35;3.35;;;;;;;;;;6088081;29;20056;-73
2021/04/15 18:50:25;;;;;;;6.88;4.00;;;;;;;;;;6096353;29;20056;-72